メインページ
METAR-TAF:

METAR-TAF

空港 :

フォス・ド・イグアス国際空港

フォス・ド・イグアス, パラナ州, ブラジル

緯度: 25-31S, 経度: 054-35W, 海抜: 180m

現時点の気象観測

当レポートは48分前の16:00(UTC)に作成
の風 12kt
気温 35°C
湿度 47%
気圧 1013 hPa
視程10km以上
高度3000ftの雲は散在している

METAR: SBFI 171600Z 36012KT 9999 SCT030 35/22 Q1013

時間: 14:48 (16:48 UTC)

予報

当レポートは8時間18分前の08:30(UTC)に作成
予報は17日の 12時(UTC)から 18日の 12時(UTC)まで有効
の風 5kt
視程10km以上
1,500メートル以下は雲なし、積乱雲なし
17日の 12時(UTC)から 17日の 14時(UTC)まで徐々に
の風 8kt
17日の 14時(UTC)から 17日の 16時(UTC)まで徐々に
視程10km以上
高度3500ftの雲は散在している
17日の 21時(UTC)から 17日の 23時(UTC)まで徐々に
北/北東の風 6kt
視程10km以上
1,500メートル以下は雲なし、積乱雲なし

TAF: SBFI 170830Z 1712/1812 09005KT CAVOK TX36/1719Z TN24/1808Z BECMG 1712/1714 36008KT BECMG 1714/1716 9999 SCT035 BECMG 1721/1723 02006KT CAVOK RM K PER

4,000以上の空港の気象観測と天気予報(METAR報とTAF報)

利用可能な観測所は地図上に黄色い丸と赤い丸で示す。

丸の上にカーソルを重ねると観測所名を参照できる。

次にクリックすると気象観測と天気予報を参照できる。

マップの切り替え:黒色「×」印の緑ボタンをクリックして拡大、「-」印の緑ボタンをクリックして縮小、緑色の三角印をクリックして隣りの地図に切り替え


METAR-TAF: